Blackville, Canada
Current Conditions -  °F | °C
As of 7:00 AM on Friday 24 Oct 2014 (Local Time) from CZBF Reporting Station
Overcast Overcast  
Wind Chill: 41°   Ceiling: 5000
Heat Index: 46°   Visibility: 15mi
Dew Point: 32°   Wind: 10mph
Humidity: 57%   Direction: 50°NE
Pressure: 29.89"   Gusts: NA
Location:  46.73°N, 65.83°W
Report Text: CZBF 241000Z 05009KT 15SM OVC050 08/00 A2989 RMK SC8 SLP123
Loading
Personal Weather Stations






























Interactive Weather Map
Tropical Storm Tracking
New forecast layout! Learn more

10-Day Weather Forecast

Advertisements
Track Severe Weather on mobile